Time;durP1;ratioP1;P1;durP2;ratioP2;P2;SDS_P1;SDS_P2;PMS_P1;PMS_P2;Temp;Humidity;BMP_temperature;BMP_pressure;BME280_temperature;BME280_humidity;BME280_pressure;Samples;Min_cycle;Max_cycle;Signal;HPM_P1;HPM_P2
2023/02/13 00:01:31;;;;;;;8.50;3.80;;;;;;;-0.37;52.04;101964.13;108092;1254;72625;-64
2023/02/13 00:04:00;;;;;;;9.60;4.20;;;;;;;-0.41;52.19;101960.48;108018;1254;60376;-64
2023/02/13 00:06:30;;;;;;;8.90;3.50;;;;;;;-0.41;52.14;101955.10;108129;1254;60762;-65
2023/02/13 00:08:59;;;;;;;11.00;4.10;;;;;;;-0.44;52.28;101956.64;108196;1254;74798;-65
2023/02/13 00:11:28;;;;;;;10.70;4.70;;;;;;;-0.48;52.39;101954.21;108185;1254;73075;-65
2023/02/13 00:13:57;;;;;;;7.40;3.60;;;;;;;-0.51;52.45;101953.40;108198;1254;73414;-65
2023/02/13 00:16:27;;;;;;;9.90;4.40;;;;;;;-0.54;52.62;101954.45;108081;1254;61261;-64
2023/02/13 00:19:01;;;;;;;9.30;3.80;;;;;;;-0.58;52.71;101950.79;108159;1254;60415;-64
2023/02/13 00:21:34;;;;;;;9.60;4.20;;;;;;;-0.61;52.65;101949.55;108118;1253;72999;-66
2023/02/13 00:24:05;;;;;;;9.10;3.90;;;;;;;-0.64;52.94;101946.48;108200;1254;73770;-64
2023/02/13 00:26:33;;;;;;;10.60;4.30;;;;;;;-0.67;53.01;101943.66;108240;1254;70982;-65
2023/02/13 00:29:06;;;;;;;9.10;4.30;;;;;;;-0.70;53.04;101941.44;108093;1254;62633;-66
2023/02/13 00:31:35;;;;;;;7.90;4.10;;;;;;;-0.73;53.14;101941.70;108339;1254;61125;-66
2023/02/13 00:34:04;;;;;;;10.80;4.40;;;;;;;-0.75;53.23;101939.48;108097;1254;73412;-64
2023/02/13 00:36:34;;;;;;;10.80;4.50;;;;;;;-0.79;53.37;101934.46;107942;1254;73766;-65
2023/02/13 00:39:04;;;;;;;10.50;4.90;;;;;;;-0.81;53.54;101935.69;108036;1254;71963;-64
2023/02/13 00:41:36;;;;;;;10.40;4.80;;;;;;;-0.81;53.49;101931.33;108241;1254;61242;-65
2023/02/13 00:44:04;;;;;;;8.70;4.20;;;;;;;-0.83;53.63;101931.51;108254;1254;61514;-65
2023/02/13 00:46:33;;;;;;;9.50;3.90;;;;;;;-0.85;53.74;101927.36;108379;1253;73909;-65
2023/02/13 00:49:02;;;;;;;8.60;4.30;;;;;;;-0.87;53.80;101925.48;108172;1254;71945;-65
2023/02/13 00:51:31;;;;;;;10.00;4.50;;;;;;;-0.90;53.74;101927.33;108059;1254;72527;-64
2023/02/13 00:54:00;;;;;;;10.90;4.60;;;;;;;-0.92;54.00;101925.43;108041;1254;61914;-64
2023/02/13 00:56:29;;;;;;;8.30;3.30;;;;;;;-0.95;54.03;101922.75;108163;1254;61237;-65
2023/02/13 00:58:59;;;;;;;8.40;3.90;;;;;;;-0.96;54.01;101920.53;108142;1254;75020;-64
2023/02/13 01:01:28;;;;;;;9.80;4.00;;;;;;;-0.98;54.02;101917.80;108209;1254;74168;-65
2023/02/13 01:03:58;;;;;;;7.60;3.20;;;;;;;-0.97;54.18;101916.14;108200;1254;71651;-65
2023/02/13 01:06:27;;;;;;;7.90;3.50;;;;;;;-0.96;53.97;101913.73;108148;1254;61965;-65
2023/02/13 01:08:56;;;;;;;7.90;3.70;;;;;;;-1.01;54.26;101908.08;108204;1254;61333;-65
2023/02/13 01:11:26;;;;;;;9.60;4.00;;;;;;;-1.03;54.23;101904.95;108185;1254;73996;-64
2023/02/13 01:13:55;;;;;;;9.30;4.30;;;;;;;-1.05;54.33;101901.89;108148;1254;72542;-64
2023/02/13 01:16:31;;;;;;;11.10;5.10;;;;;;;-1.09;54.60;101902.70;108131;1254;71962;-66
2023/02/13 01:19:04;;;;;;;16.00;6.60;;;;;;;-1.10;54.59;101901.11;108175;1254;60267;-65
2023/02/13 01:21:33;;;;;;;10.70;4.90;;;;;;;-1.11;54.61;101906.11;108201;1254;60307;-64
2023/02/13 01:24:07;;;;;;;10.50;4.00;;;;;;;-1.13;54.47;101904.75;107982;1254;73017;-66
2023/02/13 01:26:37;;;;;;;7.50;3.30;;;;;;;-1.13;54.64;101905.47;108204;1253;73984;-68
2023/02/13 01:29:06;;;;;;;9.50;3.90;;;;;;;-1.15;54.81;101902.14;108192;1258;72947;-65
2023/02/13 01:31:39;;;;;;;6.70;3.60;;;;;;;-1.16;54.74;101897.63;108072;1254;61871;-65
2023/02/13 01:34:09;;;;;;;8.80;3.80;;;;;;;-1.16;54.77;101887.02;108149;1254;61697;-65
2023/02/13 01:36:43;;;;;;;8.10;3.90;;;;;;;-1.18;54.69;101887.34;108149;1254;74069;-64
2023/02/13 01:39:11;;;;;;;9.70;4.10;;;;;;;-1.16;54.79;101884.23;108109;1254;74100;-65
2023/02/13 01:41:40;;;;;;;8.50;4.00;;;;;;;-1.19;54.80;101886.01;108062;1254;73862;-65
2023/02/13 01:44:48;;;;;;;8.40;3.40;;;;;;;-1.22;55.03;101884.38;108060;1254;62201;-66
2023/02/13 01:47:40;;;;;;;9.40;3.70;;;;;;;-1.27;55.15;101886.24;108091;1253;60425;-64
2023/02/13 01:50:41;;;;;;;7.80;3.60;;;;;;;-1.29;55.27;101880.88;108126;1254;73757;-65
2023/02/13 01:53:16;;;;;;;9.70;4.00;;;;;;;-1.32;55.55;101881.31;108115;1254;73673;-65
2023/02/13 01:56:01;;;;;;;9.30;3.50;;;;;;;-1.33;55.60;101887.35;108159;1254;72937;-65
2023/02/13 01:58:33;;;;;;;7.70;3.40;;;;;;;-1.32;55.73;101889.39;108158;1253;60396;-66
2023/02/13 02:01:02;;;;;;;7.90;3.40;;;;;;;-1.31;55.88;101887.25;108067;1253;60353;-64
2023/02/13 02:03:46;;;;;;;8.90;4.00;;;;;;;-1.31;55.72;101885.42;107937;1254;75809;-65
2023/02/13 02:06:22;;;;;;;10.00;4.00;;;;;;;-1.30;55.79;101884.11;108564;1254;71196;-65
2023/02/13 02:08:51;;;;;;;10.30;4.10;;;;;;;-1.30;55.74;101880.27;108088;1256;70843;-65
2023/02/13 02:11:50;;;;;;;11.20;4.40;;;;;;;-1.28;55.90;101872.44;108071;1257;60341;-65
2023/02/13 02:14:19;;;;;;;7.30;3.50;;;;;;;-1.27;55.91;101874.88;108096;1256;60466;-66
2023/02/13 02:16:48;;;;;;;7.20;3.60;;;;;;;-1.27;56.10;101868.75;108141;1254;74103;-65
2023/02/13 02:19:37;;;;;;;9.20;4.20;;;;;;;-1.26;56.09;101865.05;108127;1254;73111;-65
2023/02/13 02:22:32;;;;;;;9.10;4.20;;;;;;;-1.26;56.21;101861.55;108036;1257;70582;-66
2023/02/13 02:25:07;;;;;;;10.50;5.00;;;;;;;-1.25;56.40;101866.54;108045;1257;62936;-64
2023/02/13 02:27:42;;;;;;;8.00;4.60;;;;;;;-1.21;56.63;101867.18;108111;1254;60412;-64
2023/02/13 02:30:31;;;;;;;9.70;3.90;;;;;;;-1.17;56.58;101862.95;108176;1254;73594;-65
2023/02/13 02:33:18;;;;;;;9.90;4.20;;;;;;;-1.15;56.75;101868.02;108145;1254;72312;-66
2023/02/13 02:35:59;;;;;;;9.10;3.70;;;;;;;-1.15;56.90;101866.61;108036;1256;71738;-65
2023/02/13 02:39:07;;;;;;;7.20;3.80;;;;;;;-1.13;56.67;101861.66;108139;1254;61551;-64
2023/02/13 02:42:00;;;;;;;8.10;3.40;;;;;;;-1.04;56.69;101863.42;107858;1254;184917;-66
2023/02/13 02:44:41;;;;;;;7.00;3.10;;;;;;;-0.96;56.56;101866.49;108293;1254;73664;-65
2023/02/13 02:50:25;;;;;;;8.50;3.70;;;;;;;-0.87;56.46;101859.33;108014;1255;73974;-64
2023/02/13 02:53:17;;;;;;;5.90;2.70;;;;;;;-0.96;56.57;101862.19;107854;1254;60336;-65
2023/02/13 02:56:01;;;;;;;7.00;2.50;;;;;;;-0.91;56.35;101863.88;107998;1254;60329;-64
2023/02/13 03:07:13;;;;;;;6.50;3.30;;;;;;;-1.06;56.31;101867.85;108051;1254;60991;-65
2023/02/13 03:24:38;;;;;;;8.20;3.10;;;;;;;-1.12;56.49;101851.44;108118;1254;61374;-66
2023/02/13 03:30:18;;;;;;;7.00;3.00;;;;;;;-1.17;56.46;101846.90;108001;1254;72138;-65
2023/02/13 03:33:06;;;;;;;5.20;2.60;;;;;;;-1.21;56.49;101848.43;108057;1254;72272;-65
2023/02/13 03:38:48;;;;;;;8.90;3.40;;;;;;;-1.26;56.56;101836.50;108128;1254;61239;-65
2023/02/13 03:41:39;;;;;;;8.80;4.00;;;;;;;-1.28;56.64;101837.98;108067;1254;74753;-65
2023/02/13 03:44:34;;;;;;;7.00;3.20;;;;;;;-1.31;56.57;101829.19;108090;1254;74063;-65
2023/02/13 03:47:04;;;;;;;6.80;2.80;;;;;;;-1.33;56.94;101829.59;108132;1259;71607;-66
2023/02/13 03:52:29;;;;;;;8.80;3.40;;;;;;;-1.23;56.67;101823.86;108186;1254;61521;-65
2023/02/13 04:00:51;;;;;;;6.10;2.80;;;;;;;-1.36;57.12;101816.19;108136;1254;72109;-65
2023/02/13 04:03:37;;;;;;;6.20;3.40;;;;;;;-1.38;57.11;101811.04;108158;1259;61027;-67
2023/02/13 04:06:14;;;;;;;8.00;3.50;;;;;;;-1.42;56.91;101808.27;108109;1254;60434;-65
2023/02/13 04:08:43;;;;;;;9.40;3.70;;;;;;;-1.47;57.02;101805.40;108190;1254;74907;-66
2023/02/13 04:11:14;;;;;;;7.90;3.60;;;;;;;-1.52;57.13;101798.70;108044;1254;72388;-66
2023/02/13 04:13:46;;;;;;;7.00;3.00;;;;;;;-1.55;57.26;101796.69;108079;1254;71914;-66
2023/02/13 04:16:20;;;;;;;9.00;3.60;;;;;;;-1.58;57.39;101790.95;108129;1254;60325;-66
2023/02/13 04:18:48;;;;;;;6.90;2.70;;;;;;;-1.61;57.79;101789.27;108171;1254;60539;-67
2023/02/13 04:21:17;;;;;;;6.60;3.20;;;;;;;-1.63;58.07;101785.45;107940;1260;74268;-66
2023/02/13 04:23:45;;;;;;;5.70;2.80;;;;;;;-1.63;58.29;101785.11;108158;1254;74044;-65
2023/02/13 04:26:18;;;;;;;6.80;3.70;;;;;;;-1.61;58.37;101786.67;108147;1254;71897;-65
2023/02/13 04:28:47;;;;;;;6.40;2.90;;;;;;;-1.61;58.50;101782.31;108164;1254;60563;-68
2023/02/13 04:31:15;;;;;;;7.60;3.10;;;;;;;-1.60;58.88;101778.90;108146;1254;60174;-67
2023/02/13 04:33:45;;;;;;;8.00;3.50;;;;;;;-1.57;58.95;101779.44;108150;1254;74110;-66
2023/02/13 04:36:13;;;;;;;8.20;3.10;;;;;;;-1.53;59.12;101778.90;108165;1254;74014;-65
2023/02/13 04:38:44;;;;;;;9.40;3.50;;;;;;;-1.48;59.35;101781.19;108179;1254;72898;-66
2023/02/13 04:41:13;;;;;;;7.40;3.30;;;;;;;-1.40;59.50;101782.73;108137;1259;61397;-66
2023/02/13 04:43:42;;;;;;;6.40;3.00;;;;;;;-1.32;59.61;101782.39;108080;1254;60521;-65
2023/02/13 04:46:10;;;;;;;8.60;3.30;;;;;;;-1.22;59.81;101782.36;108051;1254;74991;-66
2023/02/13 04:48:39;;;;;;;7.70;2.90;;;;;;;-1.14;59.59;101776.48;108158;1254;71636;-65
2023/02/13 04:51:08;;;;;;;8.10;3.30;;;;;;;-1.05;59.66;101777.15;108128;1258;71487;-66
2023/02/13 04:53:36;;;;;;;6.90;3.20;;;;;;;-0.97;59.60;101773.77;108175;1254;62088;-66
2023/02/13 04:56:05;;;;;;;8.60;3.00;;;;;;;-0.89;59.77;101772.18;108154;1254;60494;-65
2023/02/13 04:58:34;;;;;;;6.80;3.00;;;;;;;-0.82;59.59;101773.36;108172;1254;74484;-65
2023/02/13 05:01:02;;;;;;;6.90;2.80;;;;;;;-0.73;59.55;101778.05;108150;1254;72951;-66
2023/02/13 05:03:31;;;;;;;6.90;2.80;;;;;;;-0.65;59.59;101776.24;108019;1257;71606;-66
2023/02/13 05:06:00;;;;;;;6.00;2.90;;;;;;;-0.56;59.51;101772.33;108021;1254;60290;-66
2023/02/13 05:08:29;;;;;;;8.00;3.10;;;;;;;-0.48;59.52;101776.07;108198;1254;60519;-66
2023/02/13 05:10:57;;;;;;;6.70;2.90;;;;;;;-0.42;59.56;101769.48;108131;1254;73806;-66
2023/02/13 05:13:29;;;;;;;5.70;2.90;;;;;;;-0.35;59.52;101770.38;108153;1254;71308;-64
2023/02/13 05:15:57;;;;;;;7.90;2.90;;;;;;;-0.29;59.46;101768.50;108125;1254;73605;-64
2023/02/13 05:18:26;;;;;;;7.00;3.20;;;;;;;-0.23;59.47;101773.00;108154;1254;61486;-64
2023/02/13 05:23:42;;;;;;;9.00;3.90;;;;;;;-0.16;59.27;101767.45;108092;1254;74369;-66
2023/02/13 05:26:11;;;;;;;9.60;4.20;;;;;;;-0.14;59.16;101766.16;108137;1258;72891;-65
2023/02/13 05:31:27;;;;;;;9.00;4.00;;;;;;;-0.05;59.27;101780.66;108078;1254;60480;-65
2023/02/13 05:33:56;;;;;;;8.30;3.40;;;;;;;-0.02;59.38;101784.89;108179;1254;60773;-66
2023/02/13 05:36:26;;;;;;;8.20;3.90;;;;;;;0.03;59.40;101783.14;108112;1254;73366;-66
2023/02/13 05:38:54;;;;;;;8.90;4.00;;;;;;;0.07;59.38;101776.02;108197;1254;73091;-65
2023/02/13 05:41:23;;;;;;;8.40;4.00;;;;;;;0.12;59.31;101768.40;108126;1254;72873;-65
2023/02/13 05:43:51;;;;;;;7.50;4.00;;;;;;;0.18;59.37;101766.06;108112;1254;61143;-64
2023/02/13 05:46:20;;;;;;;7.60;3.80;;;;;;;0.20;59.32;101767.35;108060;1258;61329;-66
2023/02/13 05:48:51;;;;;;;8.80;3.90;;;;;;;0.23;59.18;101767.36;108239;1254;72397;-64
2023/02/13 05:51:19;;;;;;;7.80;3.90;;;;;;;0.28;59.20;101764.13;108163;1255;72999;-65
2023/02/13 05:53:48;;;;;;;8.80;3.80;;;;;;;0.31;59.20;101761.84;108143;1254;73068;-67
2023/02/13 05:56:17;;;;;;;7.00;3.30;;;;;;;0.37;59.06;101761.95;108132;1255;61577;-65
2023/02/13 05:58:45;;;;;;;7.80;3.70;;;;;;;0.40;59.13;101759.85;108182;1253;60447;-65
2023/02/13 06:01:13;;;;;;;7.50;3.90;;;;;;;0.44;58.96;101756.29;108109;1256;74057;-66
2023/02/13 06:03:42;;;;;;;9.80;4.20;;;;;;;0.47;59.00;101758.13;108119;1254;71907;-66
2023/02/13 06:06:10;;;;;;;7.30;3.90;;;;;;;0.49;58.77;101755.77;108105;1259;72892;-65
2023/02/13 06:08:40;;;;;;;7.10;4.00;;;;;;;0.51;58.74;101756.70;108215;1255;62511;-65
2023/02/13 06:11:08;;;;;;;9.10;4.60;;;;;;;0.55;58.82;101746.06;108189;1254;60447;-65
2023/02/13 06:13:39;;;;;;;8.70;4.90;;;;;;;0.58;58.71;101750.14;108074;1259;74587;-65
2023/02/13 06:16:08;;;;;;;11.20;4.60;;;;;;;0.62;58.95;101749.81;108104;1254;74037;-66
2023/02/13 06:18:38;;;;;;;10.50;4.70;;;;;;;0.69;58.93;101742.44;108062;1257;73821;-66
2023/02/13 06:21:06;;;;;;;9.00;4.30;;;;;;;0.78;58.79;101737.31;108003;1254;60001;-65
2023/02/13 06:23:35;;;;;;;9.20;4.90;;;;;;;0.85;58.72;101741.76;108088;1254;60723;-66
2023/02/13 06:26:04;;;;;;;7.60;4.60;;;;;;;0.90;58.60;101736.72;108098;1254;74337;-64
2023/02/13 06:28:33;;;;;;;8.10;4.90;;;;;;;0.91;58.60;101736.55;108129;1255;72126;-64
2023/02/13 06:31:01;;;;;;;9.30;4.70;;;;;;;0.96;58.50;101731.52;108180;1254;70410;-64
2023/02/13 06:33:30;;;;;;;8.90;4.70;;;;;;;1.01;58.33;101729.95;108157;1254;60392;-64
2023/02/13 06:35:59;;;;;;;10.00;4.60;;;;;;;1.07;58.33;101729.45;108123;1254;60329;-64
2023/02/13 06:38:30;;;;;;;8.80;4.40;;;;;;;1.10;58.30;101724.16;108858;1254;74816;-65
2023/02/13 06:41:00;;;;;;;8.00;4.70;;;;;;;1.15;58.44;101718.52;108147;1253;73115;-67
2023/02/13 06:43:29;;;;;;;9.30;4.90;;;;;;;1.21;58.36;101714.05;108146;1254;72626;-65
2023/02/13 06:45:57;;;;;;;8.60;4.70;;;;;;;1.29;58.23;101714.63;108134;1254;61150;-65
2023/02/13 06:48:26;;;;;;;9.50;4.90;;;;;;;1.37;58.21;101717.11;108217;1254;60383;-64
2023/02/13 06:50:55;;;;;;;8.70;4.50;;;;;;;1.45;58.05;101706.39;108115;1254;74928;-64
2023/02/13 06:53:24;;;;;;;8.60;4.40;;;;;;;1.49;57.92;101706.95;108277;1254;74245;-65
2023/02/13 06:55:53;;;;;;;9.10;4.80;;;;;;;1.55;58.02;101703.63;108042;1260;72701;-65
2023/02/13 06:58:22;;;;;;;8.90;5.20;;;;;;;1.65;57.81;101704.70;108045;1257;60392;-66
2023/02/13 07:00:52;;;;;;;10.50;5.50;;;;;;;1.70;57.52;101700.80;108166;1257;62314;-67
2023/02/13 07:03:21;;;;;;;9.90;5.70;;;;;;;1.77;57.62;101700.01;108167;1254;75095;-65
2023/02/13 07:05:51;;;;;;;10.00;5.10;;;;;;;1.84;57.54;101692.88;108121;1259;71439;-65
2023/02/13 07:08:20;;;;;;;10.70;5.60;;;;;;;1.94;57.58;101695.05;108134;1257;71377;-66
2023/02/13 07:10:49;;;;;;;9.90;6.00;;;;;;;2.01;57.35;101692.89;108168;1257;61631;-66
2023/02/13 07:13:18;;;;;;;9.00;5.20;;;;;;;2.05;57.25;101689.35;108538;1253;60129;-65
2023/02/13 07:15:47;;;;;;;11.30;5.70;;;;;;;2.06;57.10;101690.20;108239;1255;74522;-66
2023/02/13 07:18:16;;;;;;;9.10;5.90;;;;;;;2.09;57.11;101685.31;108134;1254;72943;-67
2023/02/13 07:20:45;;;;;;;9.20;6.00;;;;;;;2.14;57.17;101682.67;108196;1255;71735;-65
2023/02/13 07:23:14;;;;;;;11.20;6.40;;;;;;;2.19;56.95;101679.32;108181;1254;60306;-67
2023/02/13 07:25:43;;;;;;;10.20;6.30;;;;;;;2.26;57.02;101674.63;108148;1257;60217;-67
2023/02/13 07:28:12;;;;;;;10.80;6.50;;;;;;;2.30;56.84;101677.34;108190;1254;72837;-67
2023/02/13 07:30:41;;;;;;;10.30;6.50;;;;;;;2.28;56.69;101664.67;108230;1254;72829;-67
2023/02/13 07:33:09;;;;;;;10.10;6.50;;;;;;;2.34;56.82;101663.17;108161;1254;73392;-66
2023/02/13 07:35:48;;;;;;;10.60;6.00;;;;;;;2.39;56.67;101666.18;108157;1253;60369;-67
2023/02/13 07:38:21;;;;;;;10.10;6.30;;;;;;;2.39;56.51;101667.60;108163;1254;60559;-67
2023/02/13 07:40:49;;;;;;;10.50;6.00;;;;;;;2.35;56.51;101669.92;108150;1254;72981;-66
2023/02/13 07:43:17;;;;;;;10.60;6.40;;;;;;;2.30;56.70;101664.84;108156;1254;73677;-67
2023/02/13 07:45:46;;;;;;;11.10;6.70;;;;;;;2.29;56.73;101662.19;108142;1254;71763;-67
2023/02/13 07:48:15;;;;;;;11.00;6.70;;;;;;;2.37;57.05;101657.39;108179;1254;61438;-67
2023/02/13 07:50:43;;;;;;;13.80;7.10;;;;;;;2.53;57.15;101658.15;108157;1253;60210;-67
2023/02/13 07:53:11;;;;;;;11.90;6.90;;;;;;;2.71;56.75;101661.05;108171;1254;72786;-67
2023/02/13 07:55:40;;;;;;;11.20;7.20;;;;;;;2.85;56.34;101663.27;108144;1257;73711;-66
2023/02/13 07:58:08;;;;;;;10.40;6.60;;;;;;;2.96;56.15;101660.89;108156;1257;72867;-65
2023/02/13 08:00:38;;;;;;;11.80;7.10;;;;;;;3.08;55.90;101654.58;108154;1254;60549;-66
2023/02/13 08:03:07;;;;;;;10.40;6.90;;;;;;;3.12;55.44;101657.06;108113;1254;59217;-66
2023/02/13 08:05:38;;;;;;;11.50;7.90;;;;;;;3.11;55.28;101647.35;108137;1254;73116;-67
2023/02/13 08:08:06;;;;;;;10.70;7.10;;;;;;;3.14;55.30;101642.28;108163;1254;71689;-67
2023/02/13 08:13:26;;;;;;;13.80;7.90;;;;;;;3.26;55.49;101639.80;108145;1254;62428;-67
2023/02/13 08:15:54;;;;;;;11.50;6.80;;;;;;;3.40;55.46;101634.47;108120;1254;60357;-67
2023/02/13 08:18:24;;;;;;;12.90;7.90;;;;;;;3.54;54.90;101629.60;108168;1254;73150;-65
2023/02/13 08:20:52;;;;;;;11.10;7.40;;;;;;;3.73;54.66;101628.24;108152;1254;71567;-64
2023/02/13 08:23:21;;;;;;;12.50;7.80;;;;;;;3.84;54.24;101624.07;108180;1255;73342;-64
2023/02/13 08:25:52;;;;;;;14.00;9.00;;;;;;;3.92;53.75;101616.85;108113;1254;60427;-67
2023/02/13 08:28:23;;;;;;;13.00;8.60;;;;;;;4.02;53.52;101606.66;108190;1254;60664;-67
2023/02/13 08:30:52;;;;;;;13.80;9.20;;;;;;;4.07;53.31;101599.02;108163;1254;73831;-65
2023/02/13 08:33:21;;;;;;;15.30;9.30;;;;;;;4.09;53.22;101597.45;108163;1254;71613;-66
2023/02/13 08:35:50;;;;;;;13.80;8.60;;;;;;;4.05;53.25;101594.49;108120;1257;72616;-66
2023/02/13 08:38:23;;;;;;;15.10;9.30;;;;;;;4.00;53.21;101592.09;108159;1254;61220;-66
2023/02/13 08:40:51;;;;;;;14.00;9.20;;;;;;;4.00;53.58;101599.62;108148;1254;60421;-65
2023/02/13 08:43:19;;;;;;;15.50;9.90;;;;;;;4.03;53.58;101609.73;108066;1260;74188;-66
2023/02/13 08:45:48;;;;;;;15.40;9.40;;;;;;;3.98;53.37;101606.33;108111;1254;73992;-65
2023/02/13 08:48:16;;;;;;;14.60;9.20;;;;;;;3.98;53.48;101609.39;108121;1254;73935;-65
2023/02/13 08:50:45;;;;;;;16.10;9.60;;;;;;;4.00;53.52;101607.33;108150;1254;60571;-66
2023/02/13 08:53:15;;;;;;;13.50;9.40;;;;;;;4.08;53.71;101606.71;108127;1254;61347;-65
2023/02/13 08:55:51;;;;;;;15.00;10.50;;;;;;;4.13;53.65;101614.45;108149;1254;74730;-66
2023/02/13 08:58:20;;;;;;;15.40;10.00;;;;;;;4.12;53.48;101610.47;108157;1257;73222;-66
2023/02/13 09:00:48;;;;;;;15.00;10.90;;;;;;;4.10;53.45;101614.51;108144;1254;73453;-66
2023/02/13 09:03:17;;;;;;;15.80;10.80;;;;;;;4.04;53.45;101604.56;108149;1254;60465;-65
2023/02/13 09:05:47;;;;;;;17.60;11.40;;;;;;;3.94;53.70;101609.95;108044;1254;60331;-65
2023/02/13 09:08:15;;;;;;;15.40;11.10;;;;;;;3.82;54.10;101604.33;108108;1254;73354;-65
2023/02/13 09:10:46;;;;;;;15.90;11.50;;;;;;;3.75;54.30;101598.98;108133;1257;71739;-66
2023/02/13 09:13:17;;;;;;;17.60;11.70;;;;;;;3.69;54.65;101606.63;108133;1257;72748;-66
2023/02/13 09:15:47;;;;;;;16.30;11.20;;;;;;;3.63;54.71;101605.45;108156;1254;60510;-65
2023/02/13 09:18:15;;;;;;;18.50;12.00;;;;;;;3.62;54.95;101603.00;108183;1255;60421;-65
2023/02/13 09:20:45;;;;;;;17.10;11.80;;;;;;;3.51;55.40;101592.19;108164;1257;72749;-66
2023/02/13 09:23:14;;;;;;;16.70;11.70;;;;;;;3.53;55.71;101594.29;108164;1254;71951;-65
2023/02/13 09:25:44;;;;;;;19.10;12.60;;;;;;;3.51;55.83;101602.23;108132;1254;71848;-66
2023/02/13 09:28:13;;;;;;;18.80;13.00;;;;;;;3.46;56.03;101584.23;108163;1254;60267;-66
2023/02/13 09:30:41;;;;;;;18.80;13.50;;;;;;;3.40;56.37;101589.49;108125;1254;60357;-66
2023/02/13 09:33:11;;;;;;;20.00;13.40;;;;;;;3.33;56.96;101585.48;108165;1254;73776;-66
2023/02/13 09:35:42;;;;;;;21.40;13.40;;;;;;;3.27;57.27;101579.81;108154;1254;73484;-65
2023/02/13 09:38:11;;;;;;;19.20;12.80;;;;;;;3.22;57.90;101581.70;108173;1253;72874;-65
2023/02/13 09:40:46;;;;;;;21.40;13.10;;;;;;;3.22;58.08;101580.41;108084;1254;60312;-65
2023/02/13 09:43:17;;;;;;;19.80;13.40;;;;;;;3.27;58.23;101574.94;108152;1254;61158;-64
2023/02/13 09:45:45;;;;;;;21.60;14.10;;;;;;;3.20;58.48;101568.20;108150;1253;74132;-68
2023/02/13 09:48:28;;;;;;;18.90;12.60;;;;;;;3.12;59.02;101569.70;108183;1257;72489;-68
2023/02/13 09:50:57;;;;;;;19.40;13.20;;;;;;;3.11;59.21;101567.02;108166;1254;72423;-65
2023/02/13 09:53:28;;;;;;;19.70;12.80;;;;;;;3.12;59.29;101565.31;108168;1254;60549;-65
2023/02/13 09:56:23;;;;;;;22.70;13.00;;;;;;;3.17;59.38;101559.05;108133;1254;61233;-68
2023/02/13 09:59:05;;;;;;;18.90;13.00;;;;;;;3.20;59.84;101556.70;108147;1254;72897;-65
2023/02/13 10:01:38;;;;;;;18.90;13.00;;;;;;;3.27;59.87;101557.67;108138;1253;73729;-64
2023/02/13 10:04:11;;;;;;;18.70;12.70;;;;;;;3.29;60.02;101559.48;108139;1254;71690;-67
2023/02/13 10:06:48;;;;;;;21.80;12.60;;;;;;;3.32;60.16;101556.35;108117;1254;60434;-66
2023/02/13 10:09:27;;;;;;;18.50;12.50;;;;;;;3.37;60.21;101547.81;108163;1254;60280;-64
2023/02/13 10:12:17;;;;;;;18.80;12.20;;;;;;;3.45;60.27;101541.56;108115;1254;72821;-65
2023/02/13 10:15:17;;;;;;;20.40;13.00;;;;;;;3.54;60.13;101542.30;108158;1254;73716;-65
2023/02/13 10:18:02;;;;;;;17.90;12.50;;;;;;;3.62;60.09;101525.29;108022;1254;73290;-65
2023/02/13 10:20:46;;;;;;;19.60;12.80;;;;;;;3.66;60.07;101524.23;108103;1253;60997;-65
2023/02/13 10:23:36;;;;;;;18.70;12.70;;;;;;;3.74;60.01;101506.15;108182;1254;60431;-66
2023/02/13 10:26:15;;;;;;;18.60;12.20;;;;;;;3.80;60.24;101506.38;108124;1254;74833;-64
2023/02/13 10:30:03;;;;;;;18.10;12.00;;;;;;;3.86;60.12;101496.72;108186;1254;73680;-65
2023/02/13 10:31:40;;;;;;;18.70;11.80;;;;;;;3.88;60.08;101499.36;108170;1254;72642;-66
2023/02/13 10:34:16;;;;;;;18.10;12.10;;;;;;;3.81;60.21;101484.64;108016;1256;62184;-64
2023/02/13 10:36:45;;;;;;;17.90;12.60;;;;;;;3.89;60.29;101488.85;108131;1254;61499;-65
2023/02/13 10:39:17;;;;;;;18.50;12.00;;;;;;;3.97;60.14;101488.64;108166;1254;72330;-64
2023/02/13 10:41:52;;;;;;;17.80;12.00;;;;;;;4.07;60.07;101487.70;108161;1253;72396;-66
2023/02/13 10:44:28;;;;;;;19.10;12.60;;;;;;;4.17;60.07;101491.28;108169;1254;72013;-65
2023/02/13 10:47:21;;;;;;;17.40;11.60;;;;;;;4.24;59.83;101500.56;108121;1254;60328;-65
2023/02/13 10:50:28;;;;;;;18.40;12.30;;;;;;;4.22;59.77;101499.13;108130;1255;60517;-66
2023/02/13 10:53:27;;;;;;;18.20;12.50;;;;;;;4.22;59.80;101499.50;108104;1254;74195;-66
2023/02/13 10:56:00;;;;;;;17.50;12.10;;;;;;;4.22;59.80;101499.81;108084;1254;72492;-65
2023/02/13 10:58:36;;;;;;;18.10;12.10;;;;;;;4.18;59.91;101497.34;108161;1254;72070;-65
2023/02/13 11:01:43;;;;;;;17.10;11.30;;;;;;;4.13;60.27;101498.40;108017;1254;61543;-65
2023/02/13 11:04:14;;;;;;;19.30;12.70;;;;;;;4.14;60.50;101491.54;108164;1254;60888;-66
2023/02/13 11:06:56;;;;;;;17.80;11.80;;;;;;;4.16;60.50;101492.33;108193;1254;72609;-66
2023/02/13 11:09:25;;;;;;;20.70;12.70;;;;;;;4.18;60.76;101487.52;108149;1254;73347;-66
2023/02/13 11:11:56;;;;;;;17.90;12.40;;;;;;;4.13;60.87;101488.98;108156;1254;72853;-65
2023/02/13 11:14:25;;;;;;;21.30;13.20;;;;;;;4.12;61.03;101486.48;108121;1254;60543;-66
2023/02/13 11:16:59;;;;;;;17.70;11.80;;;;;;;4.16;61.02;101485.84;108119;1254;60278;-66
2023/02/13 11:19:39;;;;;;;18.20;12.70;;;;;;;4.18;61.21;101484.17;108034;1254;73806;-65
2023/02/13 11:22:12;;;;;;;17.40;11.40;;;;;;;4.17;61.37;101483.19;108188;1254;73029;-67
2023/02/13 11:24:52;;;;;;;16.60;12.00;;;;;;;4.19;61.69;101480.68;108218;1254;70762;-65
2023/02/13 11:27:27;;;;;;;17.10;11.50;;;;;;;4.28;61.81;101477.74;108166;1253;60920;-66
2023/02/13 11:30:03;;;;;;;17.10;11.00;;;;;;;4.40;61.73;101477.45;108139;1254;61338;-65
2023/02/13 11:32:33;;;;;;;16.00;10.70;;;;;;;4.43;61.63;101476.98;108111;1254;73032;-66
2023/02/13 11:35:40;;;;;;;16.20;11.50;;;;;;;4.49;61.61;101478.72;108068;1254;71321;-66
2023/02/13 11:38:26;;;;;;;16.60;11.30;;;;;;;4.53;61.48;101479.60;107390;1262;72370;-65
2023/02/13 11:41:04;;;;;;;17.40;11.40;;;;;;;4.50;61.55;101472.75;107417;1262;62106;-65
2023/02/13 11:43:35;;;;;;;16.70;10.80;;;;;;;4.48;61.53;101469.85;107924;1254;60275;-67
2023/02/13 11:46:12;;;;;;;17.50;10.60;;;;;;;4.51;61.58;101462.25;108107;1254;73767;-66
2023/02/13 11:48:43;;;;;;;16.20;10.60;;;;;;;4.57;61.50;101460.17;108116;1254;74347;-65
2023/02/13 11:51:11;;;;;;;15.20;9.90;;;;;;;4.60;61.47;101463.91;107996;1254;72698;-65
2023/02/13 11:53:39;;;;;;;15.70;10.10;;;;;;;4.61;61.51;101456.55;108120;1257;60414;-64
2023/02/13 11:56:11;;;;;;;15.90;11.10;;;;;;;4.63;61.54;101457.08;108122;1253;60338;-65
2023/02/13 11:58:40;;;;;;;12.30;9.80;;;;;;;4.67;61.52;101453.31;108098;1254;73662;-65
2023/02/13 12:01:23;;;;;;;14.80;10.20;;;;;;;4.68;61.65;101450.10;108270;1254;72689;-66
2023/02/13 12:04:03;;;;;;;;;;;;;;;4.72;61.60;101445.56;108198;1254;72545;-65
2023/02/13 12:06:38;;;;;;;13.60;9.00;;;;;;;4.72;61.64;101437.66;108151;1254;61339;-65
2023/02/13 12:09:14;;;;;;;13.60;9.40;;;;;;;4.72;61.74;101429.03;108265;1253;60790;-66
2023/02/13 12:11:50;;;;;;;13.00;9.70;;;;;;;4.71;62.04;101426.30;108087;1253;73893;-66
2023/02/13 12:14:21;;;;;;;13.20;8.70;;;;;;;4.71;62.15;101423.50;108114;1254;73897;-65
2023/02/13 12:16:59;;;;;;;;;;;;;;;4.72;62.13;101414.18;108130;1254;71893;-66
2023/02/13 12:19:38;;;;;;;14.40;9.70;;;;;;;4.74;62.29;101409.87;108226;1253;60770;-65
2023/02/13 12:22:15;;;;;;;12.20;8.30;;;;;;;4.74;62.47;101413.80;108138;1254;61204;-66
2023/02/13 12:25:22;;;;;;;13.30;8.90;;;;;;;4.75;62.66;101406.37;108136;1254;73841;-66
2023/02/13 12:28:10;;;;;;;12.70;8.50;;;;;;;4.75;62.66;101396.72;108110;1254;71915;-65
2023/02/13 12:30:52;;;;;;;11.10;7.80;;;;;;;4.79;62.77;101392.50;108141;1257;73515;-66
2023/02/13 12:33:40;;;;;;;11.90;7.70;;;;;;;4.81;62.86;101391.08;108154;1253;60561;-66
2023/02/13 12:36:24;;;;;;;12.00;8.60;;;;;;;4.78;63.06;101397.35;108139;1253;60400;-65